sensor_id;sensor_type;location;lat;lon;timestamp;temperature;humidity
35700;DHT22;21818;51.078;12.108;2022-10-19T00:00:20;17.50;92.40
35700;DHT22;21818;51.078;12.108;2022-10-19T00:02:45;17.50;92.40
35700;DHT22;21818;51.078;12.108;2022-10-19T00:05:11;17.40;92.40
35700;DHT22;21818;51.078;12.108;2022-10-19T00:07:37;17.30;92.40
35700;DHT22;21818;51.078;12.108;2022-10-19T00:10:04;17.30;92.40
35700;DHT22;21818;51.078;12.108;2022-10-19T00:12:29;17.30;92.40
35700;DHT22;21818;51.078;12.108;2022-10-19T00:14:55;17.30;92.40
35700;DHT22;21818;51.078;12.108;2022-10-19T00:17:21;17.30;92.40
35700;DHT22;21818;51.078;12.108;2022-10-19T00:19:47;17.20;92.40
35700;DHT22;21818;51.078;12.108;2022-10-19T00:22:13;17.20;92.40
35700;DHT22;21818;51.078;12.108;2022-10-19T00:24:39;17.20;92.30
35700;DHT22;21818;51.078;12.108;2022-10-19T00:27:04;17.20;92.30
35700;DHT22;21818;51.078;12.108;2022-10-19T00:29:31;17.20;92.30
35700;DHT22;21818;51.078;12.108;2022-10-19T00:31:56;17.20;92.20
35700;DHT22;21818;51.078;12.108;2022-10-19T00:34:22;17.20;92.20
35700;DHT22;21818;51.078;12.108;2022-10-19T00:36:48;17.20;92.10
35700;DHT22;21818;51.078;12.108;2022-10-19T00:39:15;17.20;92.20
35700;DHT22;21818;51.078;12.108;2022-10-19T00:41:42;17.20;92.20
35700;DHT22;21818;51.078;12.108;2022-10-19T00:46:37;17.10;92.10
35700;DHT22;21818;51.078;12.108;2022-10-19T00:49:21;17.10;92.10
35700;DHT22;21818;51.078;12.108;2022-10-19T00:51:53;17.10;92.10
35700;DHT22;21818;51.078;12.108;2022-10-19T00:54:20;17.10;92.00
35700;DHT22;21818;51.078;12.108;2022-10-19T00:56:49;17.10;91.90
35700;DHT22;21818;51.078;12.108;2022-10-19T00:59:17;17.00;92.00
35700;DHT22;21818;51.078;12.108;2022-10-19T01:01:44;17.00;91.90
35700;DHT22;21818;51.078;12.108;2022-10-19T01:04:10;17.00;91.90
35700;DHT22;21818;51.078;12.108;2022-10-19T01:06:37;16.90;91.90
35700;DHT22;21818;51.078;12.108;2022-10-19T01:09:04;16.90;91.90
35700;DHT22;21818;51.078;12.108;2022-10-19T01:25:27;16.90;91.60
35700;DHT22;21818;51.078;12.108;2022-10-19T01:28:12;16.90;91.50
35700;DHT22;21818;51.078;12.108;2022-10-19T01:31:26;16.90;91.50
35700;DHT22;21818;51.078;12.108;2022-10-19T01:33:59;16.80;91.50
35700;DHT22;21818;51.078;12.108;2022-10-19T01:39:22;16.80;91.50
35700;DHT22;21818;51.078;12.108;2022-10-19T01:41:52;16.70;91.40
35700;DHT22;21818;51.078;12.108;2022-10-19T01:50:18;16.70;91.30
35700;DHT22;21818;51.078;12.108;2022-10-19T01:52:45;16.70;91.30
35700;DHT22;21818;51.078;12.108;2022-10-19T01:55:13;16.70;91.30
35700;DHT22;21818;51.078;12.108;2022-10-19T01:57:44;16.60;91.20
35700;DHT22;21818;51.078;12.108;2022-10-19T02:00:12;16.60;91.20
35700;DHT22;21818;51.078;12.108;2022-10-19T02:02:45;16.60;91.20
35700;DHT22;21818;51.078;12.108;2022-10-19T02:05:12;16.40;91.30
35700;DHT22;21818;51.078;12.108;2022-10-19T02:07:40;16.30;91.40
35700;DHT22;21818;51.078;12.108;2022-10-19T02:10:09;16.20;91.70
35700;DHT22;21818;51.078;12.108;2022-10-19T02:12:35;16.20;91.50
35700;DHT22;21818;51.078;12.108;2022-10-19T02:15:07;16.10;91.60
35700;DHT22;21818;51.078;12.108;2022-10-19T02:17:38;16.10;91.80
35700;DHT22;21818;51.078;12.108;2022-10-19T02:20:05;16.00;91.50
35700;DHT22;21818;51.078;12.108;2022-10-19T02:22:31;16.00;91.60
35700;DHT22;21818;51.078;12.108;2022-10-19T02:24:56;16.10;91.60
35700;DHT22;21818;51.078;12.108;2022-10-19T02:27:22;16.10;91.50
35700;DHT22;21818;51.078;12.108;2022-10-19T02:29:48;16.10;91.50
35700;DHT22;21818;51.078;12.108;2022-10-19T02:32:14;16.00;91.70
35700;DHT22;21818;51.078;12.108;2022-10-19T02:34:40;16.00;91.50
35700;DHT22;21818;51.078;12.108;2022-10-19T02:37:06;15.90;91.60
35700;DHT22;21818;51.078;12.108;2022-10-19T02:39:32;15.90;91.70
35700;DHT22;21818;51.078;12.108;2022-10-19T02:42:06;15.90;92.00
35700;DHT22;21818;51.078;12.108;2022-10-19T02:44:41;15.90;91.70
35700;DHT22;21818;51.078;12.108;2022-10-19T02:47:27;16.10;91.60
35700;DHT22;21818;51.078;12.108;2022-10-19T02:49:54;16.10;91.40
35700;DHT22;21818;51.078;12.108;2022-10-19T02:52:19;16.20;91.40
35700;DHT22;21818;51.078;12.108;2022-10-19T02:54:45;16.10;91.40
35700;DHT22;21818;51.078;12.108;2022-10-19T02:57:22;16.20;91.40
35700;DHT22;21818;51.078;12.108;2022-10-19T02:59:48;16.20;91.40
35700;DHT22;21818;51.078;12.108;2022-10-19T03:02:15;16.20;91.30
35700;DHT22;21818;51.078;12.108;2022-10-19T03:04:41;16.10;91.30
35700;DHT22;21818;51.078;12.108;2022-10-19T03:07:13;16.10;91.60
35700;DHT22;21818;51.078;12.108;2022-10-19T03:09:40;16.10;91.30
35700;DHT22;21818;51.078;12.108;2022-10-19T03:12:06;16.00;91.30
35700;DHT22;21818;51.078;12.108;2022-10-19T03:14:32;16.10;91.40
35700;DHT22;21818;51.078;12.108;2022-10-19T03:16:57;16.10;91.30
35700;DHT22;21818;51.078;12.108;2022-10-19T03:19:23;16.10;91.30
35700;DHT22;21818;51.078;12.108;2022-10-19T03:21:49;16.10;91.20
35700;DHT22;21818;51.078;12.108;2022-10-19T03:24:14;16.10;91.20
35700;DHT22;21818;51.078;12.108;2022-10-19T03:26:40;16.10;91.20
35700;DHT22;21818;51.078;12.108;2022-10-19T03:29:06;16.10;91.20
35700;DHT22;21818;51.078;12.108;2022-10-19T03:31:31;16.10;91.20
35700;DHT22;21818;51.078;12.108;2022-10-19T03:33:57;16.10;91.20
35700;DHT22;21818;51.078;12.108;2022-10-19T03:36:28;16.10;91.20
35700;DHT22;21818;51.078;12.108;2022-10-19T03:38:57;16.00;91.30
35700;DHT22;21818;51.078;12.108;2022-10-19T03:41:25;16.10;91.30
35700;DHT22;21818;51.078;12.108;2022-10-19T03:43:51;16.00;91.20
35700;DHT22;21818;51.078;12.108;2022-10-19T03:46:17;16.00;91.30
35700;DHT22;21818;51.078;12.108;2022-10-19T03:48:43;16.00;91.40
35700;DHT22;21818;51.078;12.108;2022-10-19T03:51:12;16.00;91.40
35700;DHT22;21818;51.078;12.108;2022-10-19T03:53:38;15.90;91.40
35700;DHT22;21818;51.078;12.108;2022-10-19T03:56:07;16.00;91.50
35700;DHT22;21818;51.078;12.108;2022-10-19T03:58:36;16.00;91.50
35700;DHT22;21818;51.078;12.108;2022-10-19T04:01:06;16.00;91.50
35700;DHT22;21818;51.078;12.108;2022-10-19T04:03:32;16.00;91.40
35700;DHT22;21818;51.078;12.108;2022-10-19T04:06:07;16.10;91.40
35700;DHT22;21818;51.078;12.108;2022-10-19T04:08:33;16.10;91.40
35700;DHT22;21818;51.078;12.108;2022-10-19T04:11:00;16.10;91.30
35700;DHT22;21818;51.078;12.108;2022-10-19T04:13:27;16.10;91.30
35700;DHT22;21818;51.078;12.108;2022-10-19T04:15:52;16.10;91.30
35700;DHT22;21818;51.078;12.108;2022-10-19T04:18:18;16.10;91.30
35700;DHT22;21818;51.078;12.108;2022-10-19T04:20:44;16.10;91.30
35700;DHT22;21818;51.078;12.108;2022-10-19T04:23:09;16.10;91.30
35700;DHT22;21818;51.078;12.108;2022-10-19T04:25:35;16.10;91.30
35700;DHT22;21818;51.078;12.108;2022-10-19T04:28:00;16.10;91.30
35700;DHT22;21818;51.078;12.108;2022-10-19T04:30:26;16.20;91.20
35700;DHT22;21818;51.078;12.108;2022-10-19T04:32:52;16.20;91.20
35700;DHT22;21818;51.078;12.108;2022-10-19T04:35:17;16.10;91.20
35700;DHT22;21818;51.078;12.108;2022-10-19T04:37:43;16.10;91.20
35700;DHT22;21818;51.078;12.108;2022-10-19T04:40:09;16.20;91.20
35700;DHT22;21818;51.078;12.108;2022-10-19T04:42:35;16.20;91.20
35700;DHT22;21818;51.078;12.108;2022-10-19T04:45:00;16.20;91.10
35700;DHT22;21818;51.078;12.108;2022-10-19T04:47:28;16.20;91.10
35700;DHT22;21818;51.078;12.108;2022-10-19T04:49:54;16.10;91.10
35700;DHT22;21818;51.078;12.108;2022-10-19T04:52:19;16.20;91.10
35700;DHT22;21818;51.078;12.108;2022-10-19T04:54:45;16.20;91.10
35700;DHT22;21818;51.078;12.108;2022-10-19T04:57:11;16.10;91.00
35700;DHT22;21818;51.078;12.108;2022-10-19T04:59:36;16.10;91.10
35700;DHT22;21818;51.078;12.108;2022-10-19T05:02:02;16.20;91.10
35700;DHT22;21818;51.078;12.108;2022-10-19T05:04:28;16.20;91.00
35700;DHT22;21818;51.078;12.108;2022-10-19T05:06:53;16.20;90.90
35700;DHT22;21818;51.078;12.108;2022-10-19T05:09:19;16.20;90.90
35700;DHT22;21818;51.078;12.108;2022-10-19T05:11:44;16.20;90.90
35700;DHT22;21818;51.078;12.108;2022-10-19T05:14:10;16.10;90.80
35700;DHT22;21818;51.078;12.108;2022-10-19T05:16:36;16.10;90.90
35700;DHT22;21818;51.078;12.108;2022-10-19T05:19:02;16.20;90.90
35700;DHT22;21818;51.078;12.108;2022-10-19T05:21:28;16.20;90.70
35700;DHT22;21818;51.078;12.108;2022-10-19T05:23:54;16.20;90.70
35700;DHT22;21818;51.078;12.108;2022-10-19T05:26:23;16.20;90.70
35700;DHT22;21818;51.078;12.108;2022-10-19T05:28:54;16.20;90.70
35700;DHT22;21818;51.078;12.108;2022-10-19T05:31:22;16.20;90.60
35700;DHT22;21818;51.078;12.108;2022-10-19T05:33:48;16.20;90.60
35700;DHT22;21818;51.078;12.108;2022-10-19T05:36:24;16.10;90.60
35700;DHT22;21818;51.078;12.108;2022-10-19T05:38:51;16.20;90.60
35700;DHT22;21818;51.078;12.108;2022-10-19T05:41:18;16.10;90.60
35700;DHT22;21818;51.078;12.108;2022-10-19T05:43:45;16.10;90.60
35700;DHT22;21818;51.078;12.108;2022-10-19T05:46:13;16.10;90.60
35700;DHT22;21818;51.078;12.108;2022-10-19T05:48:40;16.10;90.60
35700;DHT22;21818;51.078;12.108;2022-10-19T05:51:08;16.10;90.60
35700;DHT22;21818;51.078;12.108;2022-10-19T05:53:34;16.10;90.60
35700;DHT22;21818;51.078;12.108;2022-10-19T05:56:00;16.10;90.60
35700;DHT22;21818;51.078;12.108;2022-10-19T05:58:29;16.10;90.70
35700;DHT22;21818;51.078;12.108;2022-10-19T06:00:57;16.10;90.40
35700;DHT22;21818;51.078;12.108;2022-10-19T06:03:24;16.10;90.50
35700;DHT22;21818;51.078;12.108;2022-10-19T06:05:51;16.10;90.40
35700;DHT22;21818;51.078;12.108;2022-10-19T06:08:17;16.10;90.50
35700;DHT22;21818;51.078;12.108;2022-10-19T06:10:44;16.10;90.40
35700;DHT22;21818;51.078;12.108;2022-10-19T06:13:11;16.10;90.40
35700;DHT22;21818;51.078;12.108;2022-10-19T06:15:37;16.20;90.50
35700;DHT22;21818;51.078;12.108;2022-10-19T06:18:09;16.20;90.40
35700;DHT22;21818;51.078;12.108;2022-10-19T06:20:36;16.20;90.40
35700;DHT22;21818;51.078;12.108;2022-10-19T06:23:02;16.20;90.40
35700;DHT22;21818;51.078;12.108;2022-10-19T06:25:30;16.20;90.30
35700;DHT22;21818;51.078;12.108;2022-10-19T06:27:56;16.10;90.30
35700;DHT22;21818;51.078;12.108;2022-10-19T06:30:22;16.20;90.30
35700;DHT22;21818;51.078;12.108;2022-10-19T06:32:47;16.10;90.30
35700;DHT22;21818;51.078;12.108;2022-10-19T06:35:13;16.20;90.30
35700;DHT22;21818;51.078;12.108;2022-10-19T06:37:40;16.20;90.30
35700;DHT22;21818;51.078;12.108;2022-10-19T06:40:06;16.20;90.20
35700;DHT22;21818;51.078;12.108;2022-10-19T06:42:32;16.20;90.20
35700;DHT22;21818;51.078;12.108;2022-10-19T06:44:57;16.20;90.10
35700;DHT22;21818;51.078;12.108;2022-10-19T06:47:23;16.30;90.10
35700;DHT22;21818;51.078;12.108;2022-10-19T06:49:57;16.30;90.00
35700;DHT22;21818;51.078;12.108;2022-10-19T06:52:23;16.30;90.00
35700;DHT22;21818;51.078;12.108;2022-10-19T06:54:48;16.30;90.00
35700;DHT22;21818;51.078;12.108;2022-10-19T06:57:14;16.30;90.00
35700;DHT22;21818;51.078;12.108;2022-10-19T06:59:40;16.30;89.80
35700;DHT22;21818;51.078;12.108;2022-10-19T07:02:05;16.30;89.80
35700;DHT22;21818;51.078;12.108;2022-10-19T07:04:31;16.30;89.80
35700;DHT22;21818;51.078;12.108;2022-10-19T07:06:56;16.30;89.80
35700;DHT22;21818;51.078;12.108;2022-10-19T07:09:22;16.30;89.60
35700;DHT22;21818;51.078;12.108;2022-10-19T07:11:48;16.30;89.60
35700;DHT22;21818;51.078;12.108;2022-10-19T07:14:14;16.30;89.60
35700;DHT22;21818;51.078;12.108;2022-10-19T07:16:39;16.30;89.60
35700;DHT22;21818;51.078;12.108;2022-10-19T07:19:05;16.30;89.70
35700;DHT22;21818;51.078;12.108;2022-10-19T07:21:31;16.30;89.50
35700;DHT22;21818;51.078;12.108;2022-10-19T07:23:56;16.30;89.40
35700;DHT22;21818;51.078;12.108;2022-10-19T07:26:24;16.40;89.30
35700;DHT22;21818;51.078;12.108;2022-10-19T07:28:53;16.40;89.20
35700;DHT22;21818;51.078;12.108;2022-10-19T07:31:21;16.40;89.10
35700;DHT22;21818;51.078;12.108;2022-10-19T07:33:57;16.40;89.00
35700;DHT22;21818;51.078;12.108;2022-10-19T07:36:24;16.50;89.00
35700;DHT22;21818;51.078;12.108;2022-10-19T07:38:50;16.50;88.90
35700;DHT22;21818;51.078;12.108;2022-10-19T07:41:18;16.50;88.80
35700;DHT22;21818;51.078;12.108;2022-10-19T07:43:46;16.50;88.80
35700;DHT22;21818;51.078;12.108;2022-10-19T07:46:16;16.50;88.80
35700;DHT22;21818;51.078;12.108;2022-10-19T07:48:43;16.50;88.80
35700;DHT22;21818;51.078;12.108;2022-10-19T07:51:10;16.50;88.60
35700;DHT22;21818;51.078;12.108;2022-10-19T07:53:37;16.50;88.70
35700;DHT22;21818;51.078;12.108;2022-10-19T07:56:19;16.50;88.60
35700;DHT22;21818;51.078;12.108;2022-10-19T07:58:46;16.60;88.50
35700;DHT22;21818;51.078;12.108;2022-10-19T08:01:13;16.60;88.50
35700;DHT22;21818;51.078;12.108;2022-10-19T08:03:40;16.60;88.40
35700;DHT22;21818;51.078;12.108;2022-10-19T08:06:09;16.60;88.30
35700;DHT22;21818;51.078;12.108;2022-10-19T08:08:35;16.60;88.10
35700;DHT22;21818;51.078;12.108;2022-10-19T08:13:33;16.70;87.70
35700;DHT22;21818;51.078;12.108;2022-10-19T08:15:58;16.70;87.60
35700;DHT22;21818;51.078;12.108;2022-10-19T08:18:24;16.70;87.60
35700;DHT22;21818;51.078;12.108;2022-10-19T08:20:50;16.70;87.50
35700;DHT22;21818;51.078;12.108;2022-10-19T08:23:15;16.70;87.40
35700;DHT22;21818;51.078;12.108;2022-10-19T08:25:41;16.70;87.30
35700;DHT22;21818;51.078;12.108;2022-10-19T08:28:06;16.70;87.30
35700;DHT22;21818;51.078;12.108;2022-10-19T08:30:35;16.70;87.20
35700;DHT22;21818;51.078;12.108;2022-10-19T08:33:02;16.80;87.30
35700;DHT22;21818;51.078;12.108;2022-10-19T08:35:30;16.80;87.20
35700;DHT22;21818;51.078;12.108;2022-10-19T08:37:56;16.80;87.20
35700;DHT22;21818;51.078;12.108;2022-10-19T08:40:25;16.70;87.10
35700;DHT22;21818;51.078;12.108;2022-10-19T08:43:21;16.80;87.00
35700;DHT22;21818;51.078;12.108;2022-10-19T08:45:59;16.80;86.70
35700;DHT22;21818;51.078;12.108;2022-10-19T08:48:34;16.80;87.00
35700;DHT22;21818;51.078;12.108;2022-10-19T08:51:02;16.80;87.00
35700;DHT22;21818;51.078;12.108;2022-10-19T08:56:32;16.80;86.70
35700;DHT22;21818;51.078;12.108;2022-10-19T08:59:08;16.80;86.50
35700;DHT22;21818;51.078;12.108;2022-10-19T09:01:58;16.80;86.60
35700;DHT22;21818;51.078;12.108;2022-10-19T09:04:35;16.90;86.50
35700;DHT22;21818;51.078;12.108;2022-10-19T09:07:30;16.90;86.70
35700;DHT22;21818;51.078;12.108;2022-10-19T09:12:44;16.90;86.60
35700;DHT22;21818;51.078;12.108;2022-10-19T09:15:15;16.90;86.40
35700;DHT22;21818;51.078;12.108;2022-10-19T09:17:42;16.90;86.30
35700;DHT22;21818;51.078;12.108;2022-10-19T09:20:21;16.90;86.40
35700;DHT22;21818;51.078;12.108;2022-10-19T09:23:02;17.00;86.20
35700;DHT22;21818;51.078;12.108;2022-10-19T09:25:28;17.00;86.00
35700;DHT22;21818;51.078;12.108;2022-10-19T09:28:36;17.00;85.90
35700;DHT22;21818;51.078;12.108;2022-10-19T09:31:09;17.00;85.70
35700;DHT22;21818;51.078;12.108;2022-10-19T09:33:38;17.00;85.70
35700;DHT22;21818;51.078;12.108;2022-10-19T09:36:06;17.00;85.70
35700;DHT22;21818;51.078;12.108;2022-10-19T09:38:32;17.00;85.80
35700;DHT22;21818;51.078;12.108;2022-10-19T09:41:11;17.00;85.70
35700;DHT22;21818;51.078;12.108;2022-10-19T09:43:38;17.00;85.40
35700;DHT22;21818;51.078;12.108;2022-10-19T09:46:14;17.00;85.50
35700;DHT22;21818;51.078;12.108;2022-10-19T09:48:49;17.00;85.40
35700;DHT22;21818;51.078;12.108;2022-10-19T09:51:16;17.10;85.30
35700;DHT22;21818;51.078;12.108;2022-10-19T09:54:00;17.00;85.40
35700;DHT22;21818;51.078;12.108;2022-10-19T09:56:27;17.10;85.20
35700;DHT22;21818;51.078;12.108;2022-10-19T09:58:55;17.10;85.20
35700;DHT22;21818;51.078;12.108;2022-10-19T10:01:30;17.10;85.10
35700;DHT22;21818;51.078;12.108;2022-10-19T10:04:13;17.10;84.90
35700;DHT22;21818;51.078;12.108;2022-10-19T10:06:40;17.10;85.20
35700;DHT22;21818;51.078;12.108;2022-10-19T10:09:07;17.10;84.70
35700;DHT22;21818;51.078;12.108;2022-10-19T10:11:38;17.10;84.80
35700;DHT22;21818;51.078;12.108;2022-10-19T10:14:26;17.10;84.80
35700;DHT22;21818;51.078;12.108;2022-10-19T10:16:56;17.10;84.50
35700;DHT22;21818;51.078;12.108;2022-10-19T10:19:27;17.20;84.60
35700;DHT22;21818;51.078;12.108;2022-10-19T10:21:54;17.20;84.40
35700;DHT22;21818;51.078;12.108;2022-10-19T10:24:23;17.20;84.20
35700;DHT22;21818;51.078;12.108;2022-10-19T10:26:55;17.30;83.70
35700;DHT22;21818;51.078;12.108;2022-10-19T10:29:35;17.30;83.40
35700;DHT22;21818;51.078;12.108;2022-10-19T10:32:17;17.30;82.80
35700;DHT22;21818;51.078;12.108;2022-10-19T10:35:01;17.30;82.70
35700;DHT22;21818;51.078;12.108;2022-10-19T10:37:34;17.30;82.60
35700;DHT22;21818;51.078;12.108;2022-10-19T10:40:02;17.30;82.50
35700;DHT22;21818;51.078;12.108;2022-10-19T10:42:35;17.30;82.40
35700;DHT22;21818;51.078;12.108;2022-10-19T10:45:36;17.30;82.00
35700;DHT22;21818;51.078;12.108;2022-10-19T10:48:31;17.40;81.70
35700;DHT22;21818;51.078;12.108;2022-10-19T10:50:56;17.40;81.10
35700;DHT22;21818;51.078;12.108;2022-10-19T10:53:41;17.40;81.20
35700;DHT22;21818;51.078;12.108;2022-10-19T10:56:23;17.40;80.70
35700;DHT22;21818;51.078;12.108;2022-10-19T10:58:56;17.50;80.90
35700;DHT22;21818;51.078;12.108;2022-10-19T11:01:27;17.60;80.70
35700;DHT22;21818;51.078;12.108;2022-10-19T11:04:02;17.60;80.60
35700;DHT22;21818;51.078;12.108;2022-10-19T11:06:29;17.70;80.50
35700;DHT22;21818;51.078;12.108;2022-10-19T11:09:30;17.70;80.40
35700;DHT22;21818;51.078;12.108;2022-10-19T11:11:56;17.70;80.30
35700;DHT22;21818;51.078;12.108;2022-10-19T11:14:29;17.70;80.50
35700;DHT22;21818;51.078;12.108;2022-10-19T11:17:00;17.60;80.40
35700;DHT22;21818;51.078;12.108;2022-10-19T11:19:38;17.60;80.40
35700;DHT22;21818;51.078;12.108;2022-10-19T11:22:34;17.60;80.30
35700;DHT22;21818;51.078;12.108;2022-10-19T11:31:17;17.50;80.10
35700;DHT22;21818;51.078;12.108;2022-10-19T11:34:07;17.50;80.10
35700;DHT22;21818;51.078;12.108;2022-10-19T11:39:49;17.50;80.00
35700;DHT22;21818;51.078;12.108;2022-10-19T11:45:30;17.50;79.90
35700;DHT22;21818;51.078;12.108;2022-10-19T11:54:05;17.40;78.90
35700;DHT22;21818;51.078;12.108;2022-10-19T11:59:42;17.40;79.50
35700;DHT22;21818;51.078;12.108;2022-10-19T12:05:10;17.40;79.20
35700;DHT22;21818;51.078;12.108;2022-10-19T12:07:48;17.40;79.30
35700;DHT22;21818;51.078;12.108;2022-10-19T12:10:22;17.40;79.40
35700;DHT22;21818;51.078;12.108;2022-10-19T12:12:56;17.40;78.50
35700;DHT22;21818;51.078;12.108;2022-10-19T12:15:31;17.40;79.40
35700;DHT22;21818;51.078;12.108;2022-10-19T12:18:22;17.40;79.20
35700;DHT22;21818;51.078;12.108;2022-10-19T12:20:53;17.50;78.40
35700;DHT22;21818;51.078;12.108;2022-10-19T12:23:25;17.50;78.70
35700;DHT22;21818;51.078;12.108;2022-10-19T12:25:53;17.50;78.70
35700;DHT22;21818;51.078;12.108;2022-10-19T12:28:25;17.50;78.60
35700;DHT22;21818;51.078;12.108;2022-10-19T12:30:52;17.50;78.50
35700;DHT22;21818;51.078;12.108;2022-10-19T12:33:25;17.50;78.40
35700;DHT22;21818;51.078;12.108;2022-10-19T12:38:39;17.50;78.20
35700;DHT22;21818;51.078;12.108;2022-10-19T12:41:16;17.50;78.10
35700;DHT22;21818;51.078;12.108;2022-10-19T12:46:54;17.50;77.60
35700;DHT22;21818;51.078;12.108;2022-10-19T12:51:57;17.50;77.30
35700;DHT22;21818;51.078;12.108;2022-10-19T12:54:25;17.40;77.40
35700;DHT22;21818;51.078;12.108;2022-10-19T12:56:53;17.40;77.50
35700;DHT22;21818;51.078;12.108;2022-10-19T12:59:23;17.40;77.50
35700;DHT22;21818;51.078;12.108;2022-10-19T13:01:50;17.40;77.50
35700;DHT22;21818;51.078;12.108;2022-10-19T13:04:29;17.40;77.50
35700;DHT22;21818;51.078;12.108;2022-10-19T13:09:23;17.40;77.50
35700;DHT22;21818;51.078;12.108;2022-10-19T13:14:57;17.40;77.40
35700;DHT22;21818;51.078;12.108;2022-10-19T13:22:47;17.40;77.10
35700;DHT22;21818;51.078;12.108;2022-10-19T13:25:24;17.50;77.20
35700;DHT22;21818;51.078;12.108;2022-10-19T13:41:45;17.40;76.40
35700;DHT22;21818;51.078;12.108;2022-10-19T13:46:36;17.40;76.40
35700;DHT22;21818;51.078;12.108;2022-10-19T13:57:57;17.40;76.40
35700;DHT22;21818;51.078;12.108;2022-10-19T14:00:29;17.40;76.50
35700;DHT22;21818;51.078;12.108;2022-10-19T14:06:17;17.40;76.00
35700;DHT22;21818;51.078;12.108;2022-10-19T14:09:09;17.40;76.30
35700;DHT22;21818;51.078;12.108;2022-10-19T14:11:39;17.30;76.30
35700;DHT22;21818;51.078;12.108;2022-10-19T14:19:42;17.30;77.10
35700;DHT22;21818;51.078;12.108;2022-10-19T14:27:27;17.20;76.80
35700;DHT22;21818;51.078;12.108;2022-10-19T14:29:54;17.20;76.90
35700;DHT22;21818;51.078;12.108;2022-10-19T14:32:25;17.20;76.90
35700;DHT22;21818;51.078;12.108;2022-10-19T14:34:52;17.20;77.00
35700;DHT22;21818;51.078;12.108;2022-10-19T14:37:22;17.20;76.90
35700;DHT22;21818;51.078;12.108;2022-10-19T14:42:47;17.20;76.50
35700;DHT22;21818;51.078;12.108;2022-10-19T14:45:38;17.10;76.40
35700;DHT22;21818;51.078;12.108;2022-10-19T14:48:06;17.10;76.20
35700;DHT22;21818;51.078;12.108;2022-10-19T14:50:54;17.10;76.40
35700;DHT22;21818;51.078;12.108;2022-10-19T14:56:05;17.10;76.80
35700;DHT22;21818;51.078;12.108;2022-10-19T14:58:47;17.10;76.90
35700;DHT22;21818;51.078;12.108;2022-10-19T15:01:15;17.00;76.90
35700;DHT22;21818;51.078;12.108;2022-10-19T15:03:43;17.00;76.70
35700;DHT22;21818;51.078;12.108;2022-10-19T15:08:53;17.00;76.90
35700;DHT22;21818;51.078;12.108;2022-10-19T15:11:26;17.00;76.90
35700;DHT22;21818;51.078;12.108;2022-10-19T15:14:08;16.90;76.60
35700;DHT22;21818;51.078;12.108;2022-10-19T15:16:52;16.90;76.40
35700;DHT22;21818;51.078;12.108;2022-10-19T15:22:20;16.90;76.50
35700;DHT22;21818;51.078;12.108;2022-10-19T15:27:36;16.90;76.70
35700;DHT22;21818;51.078;12.108;2022-10-19T15:32:49;16.90;77.00
35700;DHT22;21818;51.078;12.108;2022-10-19T15:35:29;16.80;77.10
35700;DHT22;21818;51.078;12.108;2022-10-19T15:38:07;16.80;77.40
35700;DHT22;21818;51.078;12.108;2022-10-19T15:40:44;16.80;77.50
35700;DHT22;21818;51.078;12.108;2022-10-19T15:54:04;16.70;78.50
35700;DHT22;21818;51.078;12.108;2022-10-19T15:56:38;16.70;78.50
35700;DHT22;21818;51.078;12.108;2022-10-19T15:59:10;16.70;78.60
35700;DHT22;21818;51.078;12.108;2022-10-19T16:01:36;16.70;78.60
35700;DHT22;21818;51.078;12.108;2022-10-19T16:04:02;16.60;78.70
35700;DHT22;21818;51.078;12.108;2022-10-19T16:06:30;16.60;78.80
35700;DHT22;21818;51.078;12.108;2022-10-19T16:08:57;16.60;78.90
35700;DHT22;21818;51.078;12.108;2022-10-19T16:11:23;16.60;79.00
35700;DHT22;21818;51.078;12.108;2022-10-19T16:13:49;16.60;79.10
35700;DHT22;21818;51.078;12.108;2022-10-19T16:16:26;16.60;79.20
35700;DHT22;21818;51.078;12.108;2022-10-19T16:18:53;16.60;79.40
35700;DHT22;21818;51.078;12.108;2022-10-19T16:21:20;16.50;79.50
35700;DHT22;21818;51.078;12.108;2022-10-19T16:23:46;16.50;79.60
35700;DHT22;21818;51.078;12.108;2022-10-19T16:26:13;16.50;79.60
35700;DHT22;21818;51.078;12.108;2022-10-19T16:28:39;16.50;80.20
35700;DHT22;21818;51.078;12.108;2022-10-19T16:31:05;16.50;79.70
35700;DHT22;21818;51.078;12.108;2022-10-19T16:33:30;16.50;79.70
35700;DHT22;21818;51.078;12.108;2022-10-19T16:35:57;16.50;79.80
35700;DHT22;21818;51.078;12.108;2022-10-19T16:38:23;16.50;79.90
35700;DHT22;21818;51.078;12.108;2022-10-19T16:40:49;16.50;79.90
35700;DHT22;21818;51.078;12.108;2022-10-19T16:43:14;16.50;80.00
35700;DHT22;21818;51.078;12.108;2022-10-19T16:45:43;16.50;80.10
35700;DHT22;21818;51.078;12.108;2022-10-19T16:48:11;16.50;80.00
35700;DHT22;21818;51.078;12.108;2022-10-19T16:50:36;16.50;80.10
35700;DHT22;21818;51.078;12.108;2022-10-19T16:53:07;16.50;80.30
35700;DHT22;21818;51.078;12.108;2022-10-19T16:55:35;16.40;80.30
35700;DHT22;21818;51.078;12.108;2022-10-19T16:58:01;16.40;80.40
35700;DHT22;21818;51.078;12.108;2022-10-19T17:00:27;16.40;80.40
35700;DHT22;21818;51.078;12.108;2022-10-19T17:02:52;16.40;80.50
35700;DHT22;21818;51.078;12.108;2022-10-19T17:05:18;16.40;80.50
35700;DHT22;21818;51.078;12.108;2022-10-19T17:07:43;16.40;80.60
35700;DHT22;21818;51.078;12.108;2022-10-19T17:10:09;16.40;80.60
35700;DHT22;21818;51.078;12.108;2022-10-19T17:12:37;16.40;81.10
35700;DHT22;21818;51.078;12.108;2022-10-19T17:15:03;16.40;80.60
35700;DHT22;21818;51.078;12.108;2022-10-19T17:17:29;16.30;80.50
35700;DHT22;21818;51.078;12.108;2022-10-19T17:19:54;16.30;80.60
35700;DHT22;21818;51.078;12.108;2022-10-19T17:22:20;16.30;80.80
35700;DHT22;21818;51.078;12.108;2022-10-19T17:24:45;16.30;80.80
35700;DHT22;21818;51.078;12.108;2022-10-19T17:27:11;16.30;80.70
35700;DHT22;21818;51.078;12.108;2022-10-19T17:29:37;16.30;80.80
35700;DHT22;21818;51.078;12.108;2022-10-19T17:32:03;16.30;80.80
35700;DHT22;21818;51.078;12.108;2022-10-19T17:34:28;16.30;80.90
35700;DHT22;21818;51.078;12.108;2022-10-19T17:36:54;16.20;81.10
35700;DHT22;21818;51.078;12.108;2022-10-19T17:39:22;16.20;81.20
35700;DHT22;21818;51.078;12.108;2022-10-19T17:41:49;16.30;81.30
35700;DHT22;21818;51.078;12.108;2022-10-19T17:44:16;16.20;81.20
35700;DHT22;21818;51.078;12.108;2022-10-19T17:46:42;16.20;81.30
35700;DHT22;21818;51.078;12.108;2022-10-19T17:49:08;16.20;81.30
35700;DHT22;21818;51.078;12.108;2022-10-19T17:51:35;16.20;81.50
35700;DHT22;21818;51.078;12.108;2022-10-19T17:54:04;16.10;81.60